sensor_id;sensor_type;location;lat;lon;timestamp;P1;durP1;ratioP1;P2;durP2;ratioP2
3197;SDS011;1611;49.394;11.136;2023-06-05T00:01:06;3.47;;;3.03;;
3197;SDS011;1611;49.394;11.136;2023-06-05T00:03:34;5.53;;;2.87;;
3197;SDS011;1611;49.394;11.136;2023-06-05T00:06:02;3.53;;;3.23;;
3197;SDS011;1611;49.394;11.136;2023-06-05T00:08:28;3.80;;;2.67;;
3197;SDS011;1611;49.394;11.136;2023-06-05T00:10:55;4.37;;;3.20;;
3197;SDS011;1611;49.394;11.136;2023-06-05T00:13:22;3.00;;;2.80;;
3197;SDS011;1611;49.394;11.136;2023-06-05T00:15:48;3.40;;;2.73;;
3197;SDS011;1611;49.394;11.136;2023-06-05T00:18:18;2.87;;;2.67;;
3197;SDS011;1611;49.394;11.136;2023-06-05T00:20:45;3.10;;;2.90;;
3197;SDS011;1611;49.394;11.136;2023-06-05T00:23:12;2.83;;;2.50;;
3197;SDS011;1611;49.394;11.136;2023-06-05T00:25:39;3.33;;;3.03;;
3197;SDS011;1611;49.394;11.136;2023-06-05T00:28:06;5.73;;;3.03;;
3197;SDS011;1611;49.394;11.136;2023-06-05T00:30:33;3.37;;;3.07;;
3197;SDS011;1611;49.394;11.136;2023-06-05T00:33:00;2.87;;;2.67;;
3197;SDS011;1611;49.394;11.136;2023-06-05T00:35:28;4.40;;;2.93;;
3197;SDS011;1611;49.394;11.136;2023-06-05T00:37:55;5.27;;;2.47;;
3197;SDS011;1611;49.394;11.136;2023-06-05T00:40:22;4.73;;;3.43;;
3197;SDS011;1611;49.394;11.136;2023-06-05T00:42:49;4.20;;;2.63;;
3197;SDS011;1611;49.394;11.136;2023-06-05T00:45:15;4.30;;;3.60;;
3197;SDS011;1611;49.394;11.136;2023-06-05T00:47:42;7.67;;;2.90;;
3197;SDS011;1611;49.394;11.136;2023-06-05T00:50:09;2.37;;;2.23;;
3197;SDS011;1611;49.394;11.136;2023-06-05T00:52:39;4.20;;;2.77;;
3197;SDS011;1611;49.394;11.136;2023-06-05T00:55:07;2.87;;;2.67;;
3197;SDS011;1611;49.394;11.136;2023-06-05T00:57:34;7.53;;;2.97;;
3197;SDS011;1611;49.394;11.136;2023-06-05T01:00:01;4.03;;;2.90;;
3197;SDS011;1611;49.394;11.136;2023-06-05T01:02:32;2.60;;;2.50;;
3197;SDS011;1611;49.394;11.136;2023-06-05T01:05:00;4.50;;;2.70;;
3197;SDS011;1611;49.394;11.136;2023-06-05T01:07:28;4.30;;;2.90;;
3197;SDS011;1611;49.394;11.136;2023-06-05T01:09:59;3.37;;;2.80;;
3197;SDS011;1611;49.394;11.136;2023-06-05T01:12:26;7.53;;;3.13;;
3197;SDS011;1611;49.394;11.136;2023-06-05T01:15:00;2.50;;;2.40;;
3197;SDS011;1611;49.394;11.136;2023-06-05T01:17:30;4.23;;;2.87;;
3197;SDS011;1611;49.394;11.136;2023-06-05T01:19:59;3.60;;;3.30;;
3197;SDS011;1611;49.394;11.136;2023-06-05T01:22:34;8.73;;;3.17;;
3197;SDS011;1611;49.394;11.136;2023-06-05T01:25:04;2.73;;;2.53;;
3197;SDS011;1611;49.394;11.136;2023-06-05T01:27:35;4.93;;;2.93;;
3197;SDS011;1611;49.394;11.136;2023-06-05T01:30:09;3.53;;;2.77;;
3197;SDS011;1611;49.394;11.136;2023-06-05T01:32:42;2.60;;;2.40;;
3197;SDS011;1611;49.394;11.136;2023-06-05T01:35:12;2.60;;;2.40;;
3197;SDS011;1611;49.394;11.136;2023-06-05T01:37:42;3.67;;;2.53;;
3197;SDS011;1611;49.394;11.136;2023-06-05T01:40:15;4.83;;;2.50;;
3197;SDS011;1611;49.394;11.136;2023-06-05T01:42:43;3.40;;;2.57;;
3197;SDS011;1611;49.394;11.136;2023-06-05T01:45:12;8.43;;;2.53;;
3197;SDS011;1611;49.394;11.136;2023-06-05T01:47:40;3.97;;;2.40;;
3197;SDS011;1611;49.394;11.136;2023-06-05T01:50:08;2.50;;;2.30;;
3197;SDS011;1611;49.394;11.136;2023-06-05T01:52:37;3.00;;;2.77;;
3197;SDS011;1611;49.394;11.136;2023-06-05T01:55:06;7.67;;;2.50;;
3197;SDS011;1611;49.394;11.136;2023-06-05T01:57:41;3.97;;;2.77;;
3197;SDS011;1611;49.394;11.136;2023-06-05T02:00:08;6.00;;;2.60;;
3197;SDS011;1611;49.394;11.136;2023-06-05T02:02:38;3.20;;;2.60;;
3197;SDS011;1611;49.394;11.136;2023-06-05T02:05:06;2.50;;;2.37;;
3197;SDS011;1611;49.394;11.136;2023-06-05T02:07:35;2.30;;;2.20;;
3197;SDS011;1611;49.394;11.136;2023-06-05T02:10:03;2.53;;;2.33;;
3197;SDS011;1611;49.394;11.136;2023-06-05T02:12:30;2.93;;;2.33;;
3197;SDS011;1611;49.394;11.136;2023-06-05T02:14:58;3.70;;;2.53;;
3197;SDS011;1611;49.394;11.136;2023-06-05T02:17:25;2.60;;;2.10;;
3197;SDS011;1611;49.394;11.136;2023-06-05T02:19:52;2.50;;;2.40;;
3197;SDS011;1611;49.394;11.136;2023-06-05T02:22:19;3.00;;;2.80;;
3197;SDS011;1611;49.394;11.136;2023-06-05T02:24:48;2.40;;;2.30;;
3197;SDS011;1611;49.394;11.136;2023-06-05T02:27:16;7.70;;;2.77;;
3197;SDS011;1611;49.394;11.136;2023-06-05T02:29:44;4.53;;;2.63;;
3197;SDS011;1611;49.394;11.136;2023-06-05T02:32:12;2.63;;;2.50;;
3197;SDS011;1611;49.394;11.136;2023-06-05T02:34:39;5.33;;;2.80;;
3197;SDS011;1611;49.394;11.136;2023-06-05T02:37:06;2.70;;;2.50;;
3197;SDS011;1611;49.394;11.136;2023-06-05T02:39:33;6.30;;;2.80;;
3197;SDS011;1611;49.394;11.136;2023-06-05T02:42:00;3.83;;;2.40;;
3197;SDS011;1611;49.394;11.136;2023-06-05T02:44:26;3.80;;;2.20;;
3197;SDS011;1611;49.394;11.136;2023-06-05T02:46:54;2.87;;;2.60;;
3197;SDS011;1611;49.394;11.136;2023-06-05T02:49:22;2.73;;;2.53;;
3197;SDS011;1611;49.394;11.136;2023-06-05T02:51:49;3.93;;;2.57;;
3197;SDS011;1611;49.394;11.136;2023-06-05T02:54:15;6.87;;;2.77;;
3197;SDS011;1611;49.394;11.136;2023-06-05T02:56:42;3.77;;;2.87;;
3197;SDS011;1611;49.394;11.136;2023-06-05T02:59:09;2.73;;;2.17;;
3197;SDS011;1611;49.394;11.136;2023-06-05T03:01:36;3.00;;;2.80;;
3197;SDS011;1611;49.394;11.136;2023-06-05T03:04:12;4.63;;;2.20;;
3197;SDS011;1611;49.394;11.136;2023-06-05T03:06:40;2.57;;;2.37;;
3197;SDS011;1611;49.394;11.136;2023-06-05T03:09:08;3.70;;;2.47;;
3197;SDS011;1611;49.394;11.136;2023-06-05T03:11:35;2.37;;;2.00;;
3197;SDS011;1611;49.394;11.136;2023-06-05T03:14:02;3.10;;;2.70;;
3197;SDS011;1611;49.394;11.136;2023-06-05T03:16:28;5.27;;;2.63;;
3197;SDS011;1611;49.394;11.136;2023-06-05T03:19:02;4.10;;;2.77;;
3197;SDS011;1611;49.394;11.136;2023-06-05T03:21:29;7.03;;;2.33;;
3197;SDS011;1611;49.394;11.136;2023-06-05T03:23:57;3.00;;;2.60;;
3197;SDS011;1611;49.394;11.136;2023-06-05T03:26:24;2.80;;;2.60;;
3197;SDS011;1611;49.394;11.136;2023-06-05T03:28:51;2.53;;;2.37;;
3197;SDS011;1611;49.394;11.136;2023-06-05T03:31:18;3.67;;;2.10;;
3197;SDS011;1611;49.394;11.136;2023-06-05T03:33:45;5.70;;;2.33;;
3197;SDS011;1611;49.394;11.136;2023-06-05T03:36:11;4.40;;;2.20;;
3197;SDS011;1611;49.394;11.136;2023-06-05T03:38:40;2.83;;;2.43;;
3197;SDS011;1611;49.394;11.136;2023-06-05T03:41:08;3.60;;;2.70;;
3197;SDS011;1611;49.394;11.136;2023-06-05T03:43:35;6.67;;;3.13;;
3197;SDS011;1611;49.394;11.136;2023-06-05T03:46:02;3.03;;;2.10;;
3197;SDS011;1611;49.394;11.136;2023-06-05T03:48:29;3.03;;;2.73;;
3197;SDS011;1611;49.394;11.136;2023-06-05T03:50:56;4.57;;;2.67;;
3197;SDS011;1611;49.394;11.136;2023-06-05T03:53:22;2.63;;;2.43;;
3197;SDS011;1611;49.394;11.136;2023-06-05T03:55:49;2.30;;;2.10;;
3197;SDS011;1611;49.394;11.136;2023-06-05T03:58:19;2.30;;;2.20;;
3197;SDS011;1611;49.394;11.136;2023-06-05T04:00:46;11.50;;;2.53;;
3197;SDS011;1611;49.394;11.136;2023-06-05T04:03:14;4.40;;;2.33;;
3197;SDS011;1611;49.394;11.136;2023-06-05T04:05:43;3.27;;;2.33;;
3197;SDS011;1611;49.394;11.136;2023-06-05T04:08:10;2.67;;;2.43;;
3197;SDS011;1611;49.394;11.136;2023-06-05T04:10:39;2.50;;;2.30;;
3197;SDS011;1611;49.394;11.136;2023-06-05T04:13:06;2.53;;;2.33;;
3197;SDS011;1611;49.394;11.136;2023-06-05T04:15:34;4.00;;;2.63;;
3197;SDS011;1611;49.394;11.136;2023-06-05T04:18:01;8.10;;;2.67;;
3197;SDS011;1611;49.394;11.136;2023-06-05T04:20:28;7.87;;;2.97;;
3197;SDS011;1611;49.394;11.136;2023-06-05T04:22:55;3.00;;;2.80;;
3197;SDS011;1611;49.394;11.136;2023-06-05T04:25:22;5.80;;;2.10;;
3197;SDS011;1611;49.394;11.136;2023-06-05T04:31:12;8.17;;;2.93;;
3197;SDS011;1611;49.394;11.136;2023-06-05T04:33:38;7.77;;;3.13;;
3197;SDS011;1611;49.394;11.136;2023-06-05T04:36:05;2.83;;;2.63;;
3197;SDS011;1611;49.394;11.136;2023-06-05T04:38:32;5.23;;;2.40;;
3197;SDS011;1611;49.394;11.136;2023-06-05T04:40:59;11.00;;;3.10;;
3197;SDS011;1611;49.394;11.136;2023-06-05T04:43:26;4.23;;;2.57;;
3197;SDS011;1611;49.394;11.136;2023-06-05T04:45:53;7.23;;;3.43;;
3197;SDS011;1611;49.394;11.136;2023-06-05T04:48:21;4.80;;;2.77;;
3197;SDS011;1611;49.394;11.136;2023-06-05T04:50:48;4.67;;;2.77;;
3197;SDS011;1611;49.394;11.136;2023-06-05T04:53:18;11.13;;;3.47;;
3197;SDS011;1611;49.394;11.136;2023-06-05T04:55:45;10.53;;;3.10;;
3197;SDS011;1611;49.394;11.136;2023-06-05T04:58:12;7.40;;;3.10;;
3197;SDS011;1611;49.394;11.136;2023-06-05T05:00:38;6.10;;;3.10;;
3197;SDS011;1611;49.394;11.136;2023-06-05T05:03:05;13.33;;;3.50;;
3197;SDS011;1611;49.394;11.136;2023-06-05T05:05:34;4.20;;;2.43;;
3197;SDS011;1611;49.394;11.136;2023-06-05T05:08:01;3.00;;;2.23;;
3197;SDS011;1611;49.394;11.136;2023-06-05T05:10:28;8.03;;;2.40;;
3197;SDS011;1611;49.394;11.136;2023-06-05T05:12:54;4.43;;;2.87;;
3197;SDS011;1611;49.394;11.136;2023-06-05T05:15:21;6.53;;;2.70;;
3197;SDS011;1611;49.394;11.136;2023-06-05T05:17:48;3.43;;;3.00;;
3197;SDS011;1611;49.394;11.136;2023-06-05T05:20:16;5.97;;;2.90;;
3197;SDS011;1611;49.394;11.136;2023-06-05T05:22:45;13.50;;;3.07;;
3197;SDS011;1611;49.394;11.136;2023-06-05T05:25:11;12.40;;;3.13;;
3197;SDS011;1611;49.394;11.136;2023-06-05T05:27:38;7.60;;;3.07;;
3197;SDS011;1611;49.394;11.136;2023-06-05T05:30:06;16.37;;;3.90;;
3197;SDS011;1611;49.394;11.136;2023-06-05T05:32:33;24.67;;;3.40;;
3197;SDS011;1611;49.394;11.136;2023-06-05T05:35:00;5.50;;;3.07;;
3197;SDS011;1611;49.394;11.136;2023-06-05T05:37:27;9.00;;;3.10;;
3197;SDS011;1611;49.394;11.136;2023-06-05T05:39:56;12.77;;;3.37;;
3197;SDS011;1611;49.394;11.136;2023-06-05T05:42:23;6.20;;;3.50;;
3197;SDS011;1611;49.394;11.136;2023-06-05T05:44:49;7.90;;;2.83;;
3197;SDS011;1611;49.394;11.136;2023-06-05T05:47:16;5.30;;;2.90;;
3197;SDS011;1611;49.394;11.136;2023-06-05T05:49:43;7.50;;;3.43;;
3197;SDS011;1611;49.394;11.136;2023-06-05T05:52:10;8.67;;;3.07;;
3197;SDS011;1611;49.394;11.136;2023-06-05T05:54:36;6.77;;;3.10;;
3197;SDS011;1611;49.394;11.136;2023-06-05T05:57:05;8.33;;;3.33;;
3197;SDS011;1611;49.394;11.136;2023-06-05T05:59:32;12.30;;;3.90;;
3197;SDS011;1611;49.394;11.136;2023-06-05T06:01:59;10.57;;;3.37;;
3197;SDS011;1611;49.394;11.136;2023-06-05T06:04:26;7.67;;;4.40;;
3197;SDS011;1611;49.394;11.136;2023-06-05T06:06:54;5.73;;;3.00;;
3197;SDS011;1611;49.394;11.136;2023-06-05T06:09:21;6.40;;;3.00;;
3197;SDS011;1611;49.394;11.136;2023-06-05T06:11:48;3.70;;;3.40;;
3197;SDS011;1611;49.394;11.136;2023-06-05T06:14:16;9.13;;;4.33;;
3197;SDS011;1611;49.394;11.136;2023-06-05T06:16:42;7.10;;;3.60;;
3197;SDS011;1611;49.394;11.136;2023-06-05T06:19:09;9.23;;;4.20;;
3197;SDS011;1611;49.394;11.136;2023-06-05T06:21:39;11.53;;;3.60;;
3197;SDS011;1611;49.394;11.136;2023-06-05T06:24:06;7.17;;;3.83;;
3197;SDS011;1611;49.394;11.136;2023-06-05T06:26:33;5.60;;;3.50;;
3197;SDS011;1611;49.394;11.136;2023-06-05T06:29:02;5.47;;;3.50;;
3197;SDS011;1611;49.394;11.136;2023-06-05T06:31:30;3.90;;;2.90;;
3197;SDS011;1611;49.394;11.136;2023-06-05T06:33:57;3.70;;;2.90;;
3197;SDS011;1611;49.394;11.136;2023-06-05T06:36:24;7.27;;;3.30;;
3197;SDS011;1611;49.394;11.136;2023-06-05T06:38:51;3.20;;;2.83;;
3197;SDS011;1611;49.394;11.136;2023-06-05T06:41:18;12.03;;;3.70;;
3197;SDS011;1611;49.394;11.136;2023-06-05T06:43:46;3.77;;;3.23;;
3197;SDS011;1611;49.394;11.136;2023-06-05T06:46:13;4.63;;;3.63;;
3197;SDS011;1611;49.394;11.136;2023-06-05T06:48:41;7.90;;;3.90;;
3197;SDS011;1611;49.394;11.136;2023-06-05T06:51:08;5.00;;;3.00;;
3197;SDS011;1611;49.394;11.136;2023-06-05T06:53:35;5.30;;;3.53;;
3197;SDS011;1611;49.394;11.136;2023-06-05T06:56:02;8.20;;;3.83;;
3197;SDS011;1611;49.394;11.136;2023-06-05T06:58:29;4.00;;;3.40;;
3197;SDS011;1611;49.394;11.136;2023-06-05T07:00:56;7.37;;;3.70;;
3197;SDS011;1611;49.394;11.136;2023-06-05T07:03:23;4.60;;;3.30;;
3197;SDS011;1611;49.394;11.136;2023-06-05T07:05:52;5.03;;;3.80;;
3197;SDS011;1611;49.394;11.136;2023-06-05T07:08:18;7.77;;;4.27;;
3197;SDS011;1611;49.394;11.136;2023-06-05T07:10:45;4.90;;;4.17;;
3197;SDS011;1611;49.394;11.136;2023-06-05T07:13:12;5.13;;;3.67;;
3197;SDS011;1611;49.394;11.136;2023-06-05T07:15:39;4.07;;;3.60;;
3197;SDS011;1611;49.394;11.136;2023-06-05T07:18:06;4.03;;;3.77;;
3197;SDS011;1611;49.394;11.136;2023-06-05T07:20:32;4.47;;;4.13;;
3197;SDS011;1611;49.394;11.136;2023-06-05T07:23:00;3.90;;;3.53;;
3197;SDS011;1611;49.394;11.136;2023-06-05T07:25:27;5.00;;;3.80;;
3197;SDS011;1611;49.394;11.136;2023-06-05T07:27:54;4.10;;;3.73;;
3197;SDS011;1611;49.394;11.136;2023-06-05T07:30:21;6.00;;;4.57;;
3197;SDS011;1611;49.394;11.136;2023-06-05T07:32:48;4.83;;;3.80;;
3197;SDS011;1611;49.394;11.136;2023-06-05T07:35:14;4.00;;;3.70;;
3197;SDS011;1611;49.394;11.136;2023-06-05T07:37:41;5.63;;;3.80;;
3197;SDS011;1611;49.394;11.136;2023-06-05T07:40:10;6.60;;;4.40;;
3197;SDS011;1611;49.394;11.136;2023-06-05T07:42:37;7.27;;;4.80;;
3197;SDS011;1611;49.394;11.136;2023-06-05T07:45:04;4.73;;;4.30;;
3197;SDS011;1611;49.394;11.136;2023-06-05T07:47:31;5.60;;;4.00;;
3197;SDS011;1611;49.394;11.136;2023-06-05T07:49:58;5.03;;;4.20;;
3197;SDS011;1611;49.394;11.136;2023-06-05T07:52:25;5.47;;;3.97;;
3197;SDS011;1611;49.394;11.136;2023-06-05T07:54:53;6.00;;;3.73;;
3197;SDS011;1611;49.394;11.136;2023-06-05T07:57:21;4.27;;;3.83;;
3197;SDS011;1611;49.394;11.136;2023-06-05T07:59:49;5.30;;;3.73;;
3197;SDS011;1611;49.394;11.136;2023-06-05T08:02:16;7.70;;;4.60;;
3197;SDS011;1611;49.394;11.136;2023-06-05T08:04:43;5.50;;;4.70;;
3197;SDS011;1611;49.394;11.136;2023-06-05T08:07:10;5.33;;;4.40;;
3197;SDS011;1611;49.394;11.136;2023-06-05T08:09:37;4.30;;;3.93;;
3197;SDS011;1611;49.394;11.136;2023-06-05T08:12:04;4.93;;;4.10;;
3197;SDS011;1611;49.394;11.136;2023-06-05T08:14:33;4.60;;;4.20;;
3197;SDS011;1611;49.394;11.136;2023-06-05T08:17:00;5.20;;;4.80;;
3197;SDS011;1611;49.394;11.136;2023-06-05T08:19:27;7.50;;;4.40;;
3197;SDS011;1611;49.394;11.136;2023-06-05T08:21:53;5.23;;;4.77;;
3197;SDS011;1611;49.394;11.136;2023-06-05T08:24:21;8.50;;;5.00;;
3197;SDS011;1611;49.394;11.136;2023-06-05T08:26:49;5.13;;;4.43;;
3197;SDS011;1611;49.394;11.136;2023-06-05T08:29:16;6.27;;;4.50;;
3197;SDS011;1611;49.394;11.136;2023-06-05T08:31:44;8.07;;;4.87;;
3197;SDS011;1611;49.394;11.136;2023-06-05T08:34:10;8.33;;;4.50;;
3197;SDS011;1611;49.394;11.136;2023-06-05T08:36:38;8.77;;;5.20;;
3197;SDS011;1611;49.394;11.136;2023-06-05T08:39:04;10.30;;;5.27;;
3197;SDS011;1611;49.394;11.136;2023-06-05T08:41:31;7.90;;;4.47;;
3197;SDS011;1611;49.394;11.136;2023-06-05T08:44:00;12.27;;;5.23;;
3197;SDS011;1611;49.394;11.136;2023-06-05T08:46:28;5.37;;;4.90;;
3197;SDS011;1611;49.394;11.136;2023-06-05T08:48:57;5.57;;;4.40;;
3197;SDS011;1611;49.394;11.136;2023-06-05T08:51:24;7.13;;;5.60;;
3197;SDS011;1611;49.394;11.136;2023-06-05T08:53:53;9.03;;;5.17;;
3197;SDS011;1611;49.394;11.136;2023-06-05T08:56:22;6.00;;;5.50;;
3197;SDS011;1611;49.394;11.136;2023-06-05T08:58:51;8.10;;;5.20;;
3197;SDS011;1611;49.394;11.136;2023-06-05T09:01:19;7.00;;;4.90;;
3197;SDS011;1611;49.394;11.136;2023-06-05T09:03:46;14.60;;;4.63;;
3197;SDS011;1611;49.394;11.136;2023-06-05T09:06:14;7.77;;;5.47;;
3197;SDS011;1611;49.394;11.136;2023-06-05T09:08:40;8.23;;;5.03;;
3197;SDS011;1611;49.394;11.136;2023-06-05T09:11:23;7.70;;;5.53;;
3197;SDS011;1611;49.394;11.136;2023-06-05T09:13:52;8.80;;;5.10;;
3197;SDS011;1611;49.394;11.136;2023-06-05T09:16:20;14.77;;;6.13;;
3197;SDS011;1611;49.394;11.136;2023-06-05T09:18:54;6.13;;;5.20;;
3197;SDS011;1611;49.394;11.136;2023-06-05T09:21:23;5.23;;;4.73;;
3197;SDS011;1611;49.394;11.136;2023-06-05T09:23:54;5.77;;;5.07;;
3197;SDS011;1611;49.394;11.136;2023-06-05T09:26:47;9.37;;;5.17;;
3197;SDS011;1611;49.394;11.136;2023-06-05T09:29:23;10.73;;;5.13;;
3197;SDS011;1611;49.394;11.136;2023-06-05T09:31:52;5.70;;;5.10;;
3197;SDS011;1611;49.394;11.136;2023-06-05T09:34:23;9.93;;;5.33;;
3197;SDS011;1611;49.394;11.136;2023-06-05T09:36:52;6.20;;;4.87;;
3197;SDS011;1611;49.394;11.136;2023-06-05T09:39:20;11.47;;;5.03;;
3197;SDS011;1611;49.394;11.136;2023-06-05T09:41:49;8.03;;;5.60;;
3197;SDS011;1611;49.394;11.136;2023-06-05T09:44:17;6.50;;;5.20;;
3197;SDS011;1611;49.394;11.136;2023-06-05T09:46:51;5.93;;;5.17;;
3197;SDS011;1611;49.394;11.136;2023-06-05T09:49:19;5.57;;;5.07;;
3197;SDS011;1611;49.394;11.136;2023-06-05T09:51:47;8.00;;;5.93;;
3197;SDS011;1611;49.394;11.136;2023-06-05T09:54:15;18.40;;;5.40;;
3197;SDS011;1611;49.394;11.136;2023-06-05T09:56:44;5.97;;;5.33;;
3197;SDS011;1611;49.394;11.136;2023-06-05T09:59:16;5.33;;;4.90;;
3197;SDS011;1611;49.394;11.136;2023-06-05T10:01:46;7.10;;;5.03;;
3197;SDS011;1611;49.394;11.136;2023-06-05T10:04:16;5.10;;;4.60;;
3197;SDS011;1611;49.394;11.136;2023-06-05T10:06:46;8.23;;;4.90;;
3197;SDS011;1611;49.394;11.136;2023-06-05T10:09:15;9.63;;;5.03;;
3197;SDS011;1611;49.394;11.136;2023-06-05T10:11:42;8.00;;;4.80;;
3197;SDS011;1611;49.394;11.136;2023-06-05T10:14:13;5.10;;;4.70;;
3197;SDS011;1611;49.394;11.136;2023-06-05T10:16:41;5.07;;;4.47;;
3197;SDS011;1611;49.394;11.136;2023-06-05T10:19:09;6.53;;;5.53;;
3197;SDS011;1611;49.394;11.136;2023-06-05T10:21:36;5.60;;;5.10;;
3197;SDS011;1611;49.394;11.136;2023-06-05T10:24:03;9.70;;;5.10;;
3197;SDS011;1611;49.394;11.136;2023-06-05T10:29:33;18.33;;;5.37;;
3197;SDS011;1611;49.394;11.136;2023-06-05T10:32:18;5.30;;;4.90;;
3197;SDS011;1611;49.394;11.136;2023-06-05T10:35:00;8.07;;;5.33;;
3197;SDS011;1611;49.394;11.136;2023-06-05T10:37:37;9.40;;;4.93;;
3197;SDS011;1611;49.394;11.136;2023-06-05T10:40:10;6.07;;;4.90;;
3197;SDS011;1611;49.394;11.136;2023-06-05T10:42:38;6.03;;;4.73;;
3197;SDS011;1611;49.394;11.136;2023-06-05T10:45:05;6.77;;;4.77;;
3197;SDS011;1611;49.394;11.136;2023-06-05T10:47:49;14.53;;;5.50;;
3197;SDS011;1611;49.394;11.136;2023-06-05T10:50:21;9.87;;;4.80;;
3197;SDS011;1611;49.394;11.136;2023-06-05T10:52:50;20.37;;;4.80;;
3197;SDS011;1611;49.394;11.136;2023-06-05T10:55:18;4.23;;;4.00;;
3197;SDS011;1611;49.394;11.136;2023-06-05T10:58:05;12.83;;;5.60;;
3197;SDS011;1611;49.394;11.136;2023-06-05T11:00:34;4.97;;;4.53;;
3197;SDS011;1611;49.394;11.136;2023-06-05T11:03:02;7.30;;;4.60;;
3197;SDS011;1611;49.394;11.136;2023-06-05T11:05:29;9.17;;;6.40;;
3197;SDS011;1611;49.394;11.136;2023-06-05T11:08:09;6.23;;;4.47;;
3197;SDS011;1611;49.394;11.136;2023-06-05T11:10:41;5.43;;;5.00;;
3197;SDS011;1611;49.394;11.136;2023-06-05T11:16:28;7.80;;;4.80;;
3197;SDS011;1611;49.394;11.136;2023-06-05T11:22:02;10.43;;;4.47;;
3197;SDS011;1611;49.394;11.136;2023-06-05T11:24:33;5.80;;;4.70;;
3197;SDS011;1611;49.394;11.136;2023-06-05T11:27:01;4.13;;;3.93;;
3197;SDS011;1611;49.394;11.136;2023-06-05T11:29:30;6.40;;;4.40;;
3197;SDS011;1611;49.394;11.136;2023-06-05T11:31:58;4.67;;;4.27;;
3197;SDS011;1611;49.394;11.136;2023-06-05T11:34:25;5.67;;;3.97;;
3197;SDS011;1611;49.394;11.136;2023-06-05T11:36:54;5.00;;;4.17;;
3197;SDS011;1611;49.394;11.136;2023-06-05T11:39:23;4.23;;;4.00;;
3197;SDS011;1611;49.394;11.136;2023-06-05T11:41:54;4.27;;;3.97;;
3197;SDS011;1611;49.394;11.136;2023-06-05T11:47:05;4.30;;;3.97;;
3197;SDS011;1611;49.394;11.136;2023-06-05T11:49:32;4.10;;;3.80;;
3197;SDS011;1611;49.394;11.136;2023-06-05T11:51:59;5.37;;;4.00;;
3197;SDS011;1611;49.394;11.136;2023-06-05T11:54:29;3.97;;;3.73;;
3197;SDS011;1611;49.394;11.136;2023-06-05T11:56:59;4.60;;;4.23;;
3197;SDS011;1611;49.394;11.136;2023-06-05T11:59:33;4.60;;;3.90;;
3197;SDS011;1611;49.394;11.136;2023-06-05T12:02:02;7.93;;;3.50;;
3197;SDS011;1611;49.394;11.136;2023-06-05T12:04:30;4.90;;;4.00;;
3197;SDS011;1611;49.394;11.136;2023-06-05T12:06:57;3.53;;;3.33;;
3197;SDS011;1611;49.394;11.136;2023-06-05T12:09:24;4.93;;;3.77;;
3197;SDS011;1611;49.394;11.136;2023-06-05T12:11:51;4.97;;;3.90;;
3197;SDS011;1611;49.394;11.136;2023-06-05T12:14:28;5.23;;;4.17;;
3197;SDS011;1611;49.394;11.136;2023-06-05T12:16:56;3.67;;;3.40;;
3197;SDS011;1611;49.394;11.136;2023-06-05T12:19:24;3.80;;;3.50;;
3197;SDS011;1611;49.394;11.136;2023-06-05T12:21:51;3.50;;;3.30;;
3197;SDS011;1611;49.394;11.136;2023-06-05T12:24:28;4.03;;;3.73;;
3197;SDS011;1611;49.394;11.136;2023-06-05T12:26:57;4.17;;;3.40;;
3197;SDS011;1611;49.394;11.136;2023-06-05T12:29:25;3.93;;;3.63;;
3197;SDS011;1611;49.394;11.136;2023-06-05T12:31:53;4.43;;;2.90;;
3197;SDS011;1611;49.394;11.136;2023-06-05T12:37:10;3.47;;;3.20;;
3197;SDS011;1611;49.394;11.136;2023-06-05T12:39:37;8.70;;;3.40;;
3197;SDS011;1611;49.394;11.136;2023-06-05T12:42:04;4.47;;;3.50;;
3197;SDS011;1611;49.394;11.136;2023-06-05T12:44:32;6.70;;;3.50;;
3197;SDS011;1611;49.394;11.136;2023-06-05T12:46:58;3.43;;;3.33;;
3197;SDS011;1611;49.394;11.136;2023-06-05T12:49:25;3.30;;;3.13;;
3197;SDS011;1611;49.394;11.136;2023-06-05T12:51:54;6.60;;;3.10;;
3197;SDS011;1611;49.394;11.136;2023-06-05T12:54:22;3.00;;;2.77;;
3197;SDS011;1611;49.394;11.136;2023-06-05T12:56:49;3.20;;;3.00;;
3197;SDS011;1611;49.394;11.136;2023-06-05T12:59:16;2.90;;;2.80;;
3197;SDS011;1611;49.394;11.136;2023-06-05T13:01:43;4.30;;;3.40;;
3197;SDS011;1611;49.394;11.136;2023-06-05T13:04:10;3.07;;;2.90;;
3197;SDS011;1611;49.394;11.136;2023-06-05T13:06:37;3.50;;;3.30;;
3197;SDS011;1611;49.394;11.136;2023-06-05T13:09:05;4.60;;;3.30;;
3197;SDS011;1611;49.394;11.136;2023-06-05T13:11:32;3.50;;;3.20;;
3197;SDS011;1611;49.394;11.136;2023-06-05T13:13:58;4.00;;;3.80;;
3197;SDS011;1611;49.394;11.136;2023-06-05T13:16:25;4.10;;;3.80;;
3197;SDS011;1611;49.394;11.136;2023-06-05T13:18:52;4.63;;;4.00;;
3197;SDS011;1611;49.394;11.136;2023-06-05T13:21:19;4.10;;;3.90;;
3197;SDS011;1611;49.394;11.136;2023-06-05T13:23:45;8.33;;;4.43;;
3197;SDS011;1611;49.394;11.136;2023-06-05T13:26:13;8.83;;;3.93;;
3197;SDS011;1611;49.394;11.136;2023-06-05T13:28:40;4.37;;;4.17;;
3197;SDS011;1611;49.394;11.136;2023-06-05T13:31:09;4.70;;;4.40;;
3197;SDS011;1611;49.394;11.136;2023-06-05T13:33:38;4.07;;;3.67;;
3197;SDS011;1611;49.394;11.136;2023-06-05T13:36:05;3.50;;;3.33;;
3197;SDS011;1611;49.394;11.136;2023-06-05T13:38:33;3.27;;;3.10;;
3197;SDS011;1611;49.394;11.136;2023-06-05T13:41:02;3.40;;;3.30;;
3197;SDS011;1611;49.394;11.136;2023-06-05T13:43:30;3.87;;;3.27;;
3197;SDS011;1611;49.394;11.136;2023-06-05T13:45:57;4.07;;;3.77;;
3197;SDS011;1611;49.394;11.136;2023-06-05T13:48:24;3.20;;;3.10;;
3197;SDS011;1611;49.394;11.136;2023-06-05T13:50:50;3.33;;;3.13;;
3197;SDS011;1611;49.394;11.136;2023-06-05T13:53:17;3.50;;;3.20;;
3197;SDS011;1611;49.394;11.136;2023-06-05T13:55:44;2.90;;;2.80;;
3197;SDS011;1611;49.394;11.136;2023-06-05T13:58:11;3.43;;;3.23;;
3197;SDS011;1611;49.394;11.136;2023-06-05T14:00:39;3.93;;;2.90;;
3197;SDS011;1611;49.394;11.136;2023-06-05T14:03:06;3.83;;;3.63;;
3197;SDS011;1611;49.394;11.136;2023-06-05T14:05:33;3.43;;;3.20;;
3197;SDS011;1611;49.394;11.136;2023-06-05T14:07:59;4.65;;;3.25;;
3197;SDS011;1611;49.394;11.136;2023-06-05T14:10:26;5.63;;;3.43;;
3197;SDS011;1611;49.394;11.136;2023-06-05T14:12:53;3.80;;;3.60;;
3197;SDS011;1611;49.394;11.136;2023-06-05T14:15:20;3.67;;;3.47;;
3197;SDS011;1611;49.394;11.136;2023-06-05T14:17:49;5.00;;;4.37;;
3197;SDS011;1611;49.394;11.136;2023-06-05T14:20:17;4.80;;;4.50;;
3197;SDS011;1611;49.394;11.136;2023-06-05T14:22:45;4.63;;;4.33;;
3197;SDS011;1611;49.394;11.136;2023-06-05T14:25:12;4.03;;;3.87;;
3197;SDS011;1611;49.394;11.136;2023-06-05T14:27:39;4.23;;;4.03;;
3197;SDS011;1611;49.394;11.136;2023-06-05T14:30:06;4.03;;;3.90;;
3197;SDS011;1611;49.394;11.136;2023-06-05T14:32:34;4.67;;;4.20;;
3197;SDS011;1611;49.394;11.136;2023-06-05T14:35:02;4.10;;;3.80;;
3197;SDS011;1611;49.394;11.136;2023-06-05T14:37:29;3.63;;;3.50;;
3197;SDS011;1611;49.394;11.136;2023-06-05T14:39:56;4.60;;;3.80;;
3197;SDS011;1611;49.394;11.136;2023-06-05T14:42:23;7.43;;;4.10;;
3197;SDS011;1611;49.394;11.136;2023-06-05T14:44:50;5.73;;;3.67;;
3197;SDS011;1611;49.394;11.136;2023-06-05T14:47:17;4.10;;;3.80;;
3197;SDS011;1611;49.394;11.136;2023-06-05T14:49:43;4.53;;;4.17;;
3197;SDS011;1611;49.394;11.136;2023-06-05T14:52:11;3.90;;;3.60;;
3197;SDS011;1611;49.394;11.136;2023-06-05T14:54:38;4.17;;;3.87;;
3197;SDS011;1611;49.394;11.136;2023-06-05T14:57:05;16.40;;;4.17;;
3197;SDS011;1611;49.394;11.136;2023-06-05T14:59:32;9.30;;;4.57;;
3197;SDS011;1611;49.394;11.136;2023-06-05T15:01:59;4.10;;;3.80;;
3197;SDS011;1611;49.394;11.136;2023-06-05T15:04:26;3.83;;;3.53;;
3197;SDS011;1611;49.394;11.136;2023-06-05T15:06:54;4.47;;;3.90;;
3197;SDS011;1611;49.394;11.136;2023-06-05T15:09:22;3.90;;;3.60;;
3197;SDS011;1611;49.394;11.136;2023-06-05T15:11:49;5.17;;;4.47;;
3197;SDS011;1611;49.394;11.136;2023-06-05T15:14:16;7.60;;;4.30;;
3197;SDS011;1611;49.394;11.136;2023-06-05T15:16:42;10.43;;;4.90;;
3197;SDS011;1611;49.394;11.136;2023-06-05T15:19:09;4.57;;;4.27;;
3197;SDS011;1611;49.394;11.136;2023-06-05T15:21:36;5.13;;;4.17;;
3197;SDS011;1611;49.394;11.136;2023-06-05T15:24:03;17.43;;;6.07;;